createdAt,value
2018-06-08T00:00:53.735Z,0
2018-06-08T00:01:53.661Z,0
2018-06-08T00:02:53.128Z,0
2018-06-08T00:03:53.621Z,0
2018-06-08T00:04:53.491Z,0
2018-06-08T00:05:54.139Z,0
2018-06-08T00:06:53.671Z,0
2018-06-08T00:07:53.333Z,0
2018-06-08T00:08:54.159Z,0
2018-06-08T00:09:53.891Z,0
2018-06-08T00:10:53.458Z,0
2018-06-08T00:12:14.591Z,0
2018-06-08T00:13:36.921Z,0
2018-06-08T00:14:37.574Z,0
2018-06-08T00:15:37.240Z,0
2018-06-08T00:16:37.112Z,0
2018-06-08T00:17:37.628Z,0
2018-06-08T00:18:37.469Z,0
2018-06-08T00:19:37.991Z,0
2018-06-08T00:20:37.554Z,0
2018-06-08T00:21:36.979Z,0
2018-06-08T00:22:37.635Z,0
2018-06-08T00:23:37.505Z,0
2018-06-08T00:24:36.988Z,0
2018-06-08T00:25:59.264Z,0
2018-06-08T00:27:01.211Z,0
2018-06-08T00:28:23.061Z,0
2018-06-08T00:29:23.611Z,0
2018-06-08T00:30:23.316Z,0
2018-06-08T00:31:27.973Z,0
2018-06-08T00:32:45.138Z,0
2018-06-08T00:33:45.330Z,0
2018-06-08T00:34:44.819Z,0
2018-06-08T00:35:45.703Z,0
2018-06-08T00:36:45.540Z,0
2018-06-08T00:37:45.237Z,0
2018-06-08T00:38:45.859Z,0
2018-06-08T00:40:06.721Z,0
2018-06-08T00:41:07.332Z,0
2018-06-08T00:42:06.732Z,0
2018-06-08T00:43:07.011Z,0
2018-06-08T00:44:07.392Z,0
2018-06-08T00:45:07.236Z,0
2018-06-08T00:46:06.818Z,0
2018-06-08T00:47:07.241Z,0
2018-06-08T00:48:06.570Z,0
2018-06-08T00:49:06.967Z,0
2018-06-08T00:50:06.668Z,0
2018-06-08T00:51:07.657Z,0
2018-06-08T00:52:07.396Z,0
2018-06-08T00:53:06.779Z,0
2018-06-08T00:54:07.234Z,0
2018-06-08T00:55:06.751Z,0
2018-06-08T00:56:28.928Z,0
2018-06-08T00:57:29.352Z,0
2018-06-08T00:58:28.946Z,0
2018-06-08T00:59:29.542Z,0
2018-06-08T01:00:30.355Z,0
2018-06-08T01:01:29.118Z,0
2018-06-08T01:02:31.070Z,0
2018-06-08T01:03:29.813Z,0
2018-06-08T01:04:51.086Z,0
2018-06-08T01:05:51.547Z,0
2018-06-08T01:06:51.164Z,0
2018-06-08T01:08:12.226Z,0
2018-06-08T01:09:13.059Z,0
2018-06-08T01:10:34.231Z,0
2018-06-08T01:11:34.805Z,0
2018-06-08T01:12:58.255Z,0
2018-06-08T01:14:10.110Z,0
2018-06-08T01:14:58.497Z,0
2018-06-08T01:15:58.943Z,0
2018-06-08T01:16:58.297Z,0
2018-06-08T01:17:58.676Z,0
2018-06-08T01:19:21.480Z,0
2018-06-08T01:20:22.316Z,0
2018-06-08T01:21:22.047Z,0
2018-06-08T01:22:21.851Z,0
2018-06-08T01:23:21.796Z,0
2018-06-08T01:24:21.159Z,0
2018-06-08T01:25:21.609Z,0
2018-06-08T01:26:21.207Z,0
2018-06-08T01:27:21.991Z,0
2018-06-08T01:28:21.861Z,0
2018-06-08T01:29:21.487Z,0
2018-06-08T01:30:22.177Z,0
2018-06-08T01:31:21.643Z,0
2018-06-08T01:32:21.291Z,0
2018-06-08T01:33:21.769Z,0
2018-06-08T01:34:21.511Z,0
2018-06-08T01:35:22.148Z,0
2018-06-08T01:36:21.707Z,0
2018-06-08T01:37:21.551Z,0
2018-06-08T01:38:42.772Z,0
2018-06-08T01:39:43.233Z,0
2018-06-08T01:40:42.821Z,0
2018-06-08T01:41:43.621Z,0
2018-06-08T01:42:43.213Z,0
2018-06-08T01:43:42.762Z,0
2018-06-08T01:44:43.584Z,0
2018-06-08T01:45:43.206Z,0
2018-06-08T01:46:42.617Z,0
2018-06-08T01:47:43.024Z,0
2018-06-08T01:48:42.917Z,0
2018-06-08T01:49:44.181Z,0
2018-06-08T01:50:42.886Z,0
2018-06-08T01:51:43.255Z,0
2018-06-08T01:52:43.844Z,0
2018-06-08T01:53:43.586Z,0
2018-06-08T01:54:43.292Z,0
2018-06-08T01:55:42.887Z,0
2018-06-08T01:56:42.836Z,0
2018-06-08T01:57:43.595Z,0
2018-06-08T01:58:43.428Z,0
2018-06-08T01:59:42.972Z,0
2018-06-08T02:00:43.406Z,0
2018-06-08T02:01:43.311Z,0
2018-06-08T02:02:43.104Z,0
2018-06-08T02:03:42.553Z,0
2018-06-08T02:04:42.952Z,0
2018-06-08T02:05:42.993Z,0
2018-06-08T02:06:42.493Z,0
2018-06-08T02:07:42.675Z,0
2018-06-08T02:08:43.066Z,0
2018-06-08T02:09:42.593Z,0
2018-06-08T02:10:43.030Z,0
2018-06-08T02:11:42.460Z,0
2018-06-08T02:12:43.025Z,0
2018-06-08T02:13:42.606Z,0
2018-06-08T02:14:43.465Z,0
2018-06-08T02:15:43.031Z,0
2018-06-08T02:16:42.833Z,0
2018-06-08T02:17:43.372Z,0
2018-06-08T02:18:43.058Z,0
2018-06-08T02:19:42.713Z,0
2018-06-08T02:21:04.823Z,0
2018-06-08T02:22:05.563Z,0
2018-06-08T02:23:05.081Z,0
2018-06-08T02:24:05.680Z,0
2018-06-08T02:25:05.188Z,0
2018-06-08T02:26:05.739Z,0
2018-06-08T02:27:05.106Z,0
2018-06-08T02:28:05.948Z,0
2018-06-08T02:29:05.389Z,0
2018-06-08T02:30:05.043Z,0
2018-06-08T02:31:06.002Z,0
2018-06-08T02:32:05.629Z,0
2018-06-08T02:33:05.450Z,0
2018-06-08T02:34:07.144Z,0
2018-06-08T02:35:06.057Z,0
2018-06-08T02:36:26.903Z,0
2018-06-08T02:37:27.815Z,0
2018-06-08T02:38:27.652Z,0
2018-06-08T02:39:28.341Z,0
2018-06-08T02:40:27.049Z,0
2018-06-08T02:41:27.533Z,0
2018-06-08T02:42:27.086Z,0
2018-06-08T02:43:27.950Z,0
2018-06-08T02:44:27.718Z,0
2018-06-08T02:45:48.439Z,0
2018-06-08T02:46:49.252Z,0
2018-06-08T02:47:48.696Z,0
2018-06-08T02:48:49.523Z,0
2018-06-08T02:49:49.187Z,1
2018-06-08T02:51:32.047Z,1
2018-06-08T02:52:53.034Z,1
2018-06-08T02:53:53.901Z,1
2018-06-08T02:55:15.218Z,1
2018-06-08T02:56:15.538Z,2
2018-06-08T02:57:37.747Z,2
2018-06-08T02:58:38.523Z,2
2018-06-08T02:59:38.072Z,2
2018-06-08T03:00:38.761Z,2
2018-06-08T03:01:38.551Z,3
2018-06-08T03:02:38.318Z,3
2018-06-08T03:03:37.765Z,3
2018-06-08T03:04:38.425Z,3
2018-06-08T03:05:38.087Z,3
2018-06-08T03:06:38.779Z,3
2018-06-08T03:07:38.810Z,3
2018-06-08T03:09:00.195Z,3
2018-06-08T03:10:21.806Z,4
2018-06-08T03:11:22.601Z,4
2018-06-08T03:12:22.210Z,4
2018-06-08T03:13:22.851Z,5
2018-06-08T03:14:22.378Z,5
2018-06-08T03:15:43.272Z,5
2018-06-08T03:16:43.836Z,5
2018-06-08T03:17:43.564Z,6
2018-06-08T03:18:44.388Z,6
2018-06-08T03:19:43.921Z,6
2018-06-08T03:20:43.317Z,7
2018-06-08T03:21:43.840Z,7
2018-06-08T03:22:43.191Z,8
2018-06-08T03:24:07.902Z,9
2018-06-08T03:25:08.534Z,9
2018-06-08T03:26:08.077Z,10
2018-06-08T03:27:08.849Z,10
2018-06-08T03:28:08.488Z,11
2018-06-08T03:29:08.168Z,11
2018-06-08T03:30:30.221Z,12
2018-06-08T03:31:31.114Z,13
2018-06-08T03:32:31.672Z,13
2018-06-08T03:33:31.621Z,14
2018-06-08T03:34:31.440Z,14
2018-06-08T03:35:31.600Z,15
2018-06-08T03:36:30.344Z,15
2018-06-08T03:37:31.851Z,15
2018-06-08T03:38:53.190Z,16
2018-06-08T03:39:52.842Z,16
2018-06-08T03:40:53.407Z,17
2018-06-08T03:41:53.116Z,17
2018-06-08T03:42:53.481Z,18
2018-06-08T03:43:53.072Z,19
2018-06-08T03:45:15.483Z,20
2018-06-08T03:46:15.205Z,21
2018-06-08T03:47:16.000Z,21
2018-06-08T03:48:15.728Z,22
2018-06-08T03:49:15.416Z,23
2018-06-08T03:50:15.909Z,24
2018-06-08T03:51:37.235Z,26
2018-06-08T03:52:38.217Z,26
2018-06-08T03:53:38.270Z,27
2018-06-08T03:54:38.070Z,27
2018-06-08T03:55:59.463Z,28
2018-06-08T03:57:22.724Z,28
2018-06-08T03:58:23.314Z,29
2018-06-08T03:59:22.787Z,29
2018-06-08T04:00:23.881Z,29
2018-06-08T04:01:23.838Z,30
2018-06-08T04:02:23.511Z,30
2018-06-08T04:03:23.231Z,31
2018-06-08T04:04:45.292Z,32
2018-06-08T04:06:07.441Z,33
2018-06-08T04:07:07.903Z,34
2018-06-08T04:08:07.958Z,35
2018-06-08T04:09:07.594Z,36
2018-06-08T04:10:28.676Z,37
2018-06-08T04:11:29.448Z,37
2018-06-08T04:12:29.119Z,38
2018-06-08T04:13:29.117Z,40
2018-06-08T04:14:29.022Z,41
2018-06-08T04:15:50.498Z,44
2018-06-08T04:16:51.221Z,45
2018-06-08T04:17:50.992Z,47
2018-06-08T04:18:50.996Z,49
2018-06-08T04:19:50.465Z,51
2018-06-08T04:20:51.119Z,53
2018-06-08T04:22:12.848Z,55
2018-06-08T04:23:12.801Z,56
2018-06-08T04:24:13.659Z,58
2018-06-08T04:25:13.455Z,59
2018-06-08T04:26:34.455Z,61
2018-06-08T04:27:35.198Z,63
2018-06-08T04:28:35.100Z,65
2018-06-08T04:29:34.892Z,65
2018-06-08T04:30:34.816Z,66
2018-06-08T04:31:34.667Z,67
2018-06-08T04:32:36.008Z,68
2018-06-08T04:33:56.163Z,70
2018-06-08T04:34:56.765Z,70
2018-06-08T04:35:56.513Z,71
2018-06-08T04:36:56.127Z,72
2018-06-08T04:37:56.559Z,73
2018-06-08T04:38:56.660Z,74
2018-06-08T04:39:56.793Z,75
2018-06-08T04:40:56.969Z,77
2018-06-08T04:41:57.161Z,79
2018-06-08T04:42:56.899Z,81
2018-06-08T04:44:18.120Z,84
2018-06-08T04:45:18.793Z,86
2018-06-08T04:46:40.125Z,91
2018-06-08T04:47:41.156Z,91
2018-06-08T04:48:40.776Z,89
2018-06-08T04:49:41.205Z,88
2018-06-08T04:50:41.132Z,89
2018-06-08T04:51:41.044Z,89
2018-06-08T04:52:40.875Z,89
2018-06-08T04:53:42.139Z,89
2018-06-08T04:54:40.957Z,89
2018-06-08T04:55:40.778Z,90
2018-06-08T04:56:40.632Z,91
2018-06-08T04:57:40.409Z,92
2018-06-08T04:58:40.007Z,92
2018-06-08T04:59:41.136Z,93
2018-06-08T05:00:40.807Z,95
2018-06-08T05:02:23.942Z,95
2018-06-08T05:03:23.833Z,96
2018-06-08T05:04:24.877Z,98
2018-06-08T05:05:24.129Z,101
2018-06-08T05:06:47.148Z,98
2018-06-08T05:07:47.184Z,95
2018-06-08T05:09:31.281Z,100
2018-06-08T05:10:54.029Z,102
2018-06-08T05:11:53.635Z,105
2018-06-08T05:12:54.708Z,108
2018-06-08T05:13:54.763Z,110
2018-06-08T05:14:53.951Z,114
2018-06-08T05:15:53.965Z,116
2018-06-08T05:16:54.131Z,115
2018-06-08T05:17:53.906Z,118
2018-06-08T05:18:54.092Z,120
2018-06-08T05:19:53.971Z,128
2018-06-08T05:20:53.944Z,131
2018-06-08T05:21:54.075Z,135
2018-06-08T05:22:53.906Z,130
2018-06-08T05:23:53.666Z,128
2018-06-08T05:24:54.426Z,129
2018-06-08T05:25:54.852Z,134
2018-06-08T05:26:53.666Z,139
2018-06-08T05:27:54.796Z,138
2018-06-08T05:28:54.538Z,135
2018-06-08T05:30:16.005Z,134
2018-06-08T05:31:17.013Z,145
2018-06-08T05:32:17.891Z,155
2018-06-08T05:33:17.188Z,156
2018-06-08T05:34:17.365Z,155
2018-06-08T05:35:38.156Z,152
2018-06-08T05:36:39.120Z,162
2018-06-08T05:37:38.685Z,162
2018-06-08T05:38:38.823Z,164
2018-06-08T05:39:38.730Z,167
2018-06-08T05:41:00.612Z,169
2018-06-08T05:42:01.614Z,172
2018-06-08T05:43:00.731Z,171
2018-06-08T05:44:01.298Z,174
2018-06-08T05:45:00.921Z,178
2018-06-08T05:46:00.577Z,179
2018-06-08T05:47:00.616Z,177
2018-06-08T05:48:23.118Z,174
2018-06-08T05:49:23.369Z,175
2018-06-08T05:50:23.431Z,176
2018-06-08T05:51:23.406Z,175
2018-06-08T05:52:45.632Z,183
2018-06-08T05:53:46.753Z,194
2018-06-08T05:54:46.920Z,194
2018-06-08T05:55:46.584Z,191
2018-06-08T05:56:46.550Z,198
2018-06-08T05:57:46.720Z,200
2018-06-08T05:58:46.536Z,198
2018-06-08T06:00:29.737Z,201
2018-06-08T06:01:30.617Z,203
2018-06-08T06:02:30.798Z,212
2018-06-08T06:03:30.903Z,214
2018-06-08T06:04:30.603Z,215
2018-06-08T06:05:30.425Z,212
2018-06-08T06:06:30.272Z,199
2018-06-08T06:07:30.076Z,181
2018-06-08T06:08:29.896Z,170
2018-06-08T06:09:30.944Z,163
2018-06-08T06:10:52.010Z,155
2018-06-08T06:11:53.285Z,152
2018-06-08T06:13:14.037Z,149
2018-06-08T06:14:35.323Z,151
2018-06-08T06:15:36.375Z,154
2018-06-08T06:16:36.139Z,159
2018-06-08T06:17:35.788Z,170
2018-06-08T06:18:35.744Z,178
2018-06-08T06:19:35.479Z,194
2018-06-08T06:20:36.145Z,192
2018-06-08T06:22:19.590Z,207
2018-06-08T06:23:19.308Z,200
2018-06-08T06:24:20.363Z,179
2018-06-08T06:26:03.644Z,178
2018-06-08T06:27:15.088Z,177
2018-06-08T06:28:04.103Z,176
2018-06-08T06:29:03.790Z,185
2018-06-08T06:30:25.995Z,175
2018-06-08T06:31:28.544Z,173
2018-06-08T06:32:26.681Z,172
2018-06-08T06:33:48.548Z,219
2018-06-08T06:34:48.354Z,259
2018-06-08T06:35:48.454Z,273
2018-06-08T06:36:48.183Z,203
2018-06-08T06:37:49.258Z,222
2018-06-08T06:38:49.330Z,289
2018-06-08T06:40:10.128Z,265
2018-06-08T06:41:31.255Z,219
2018-06-08T06:42:33.045Z,229
2018-06-08T06:43:32.021Z,321
2018-06-08T06:44:31.993Z,302
2018-06-08T06:45:31.866Z,291
2018-06-08T06:46:31.515Z,279
2018-06-08T06:47:32.354Z,291
2018-06-08T06:48:53.712Z,312
2018-06-08T06:49:54.759Z,275
2018-06-08T06:50:54.459Z,313
2018-06-08T06:53:19.758Z,319
2018-06-08T06:54:20.289Z,322
2018-06-08T06:55:19.964Z,314
2018-06-08T06:56:20.758Z,336
2018-06-08T06:57:20.461Z,341
2018-06-08T06:58:20.717Z,339
2018-06-08T06:59:20.595Z,350
2018-06-08T07:00:20.368Z,353
2018-06-08T07:01:26.105Z,363
2018-06-08T07:02:20.851Z,376
2018-06-08T07:03:21.307Z,366
2018-06-08T07:04:20.530Z,331
2018-06-08T07:05:43.690Z,312
2018-06-08T07:06:45.198Z,332
2018-06-08T07:07:44.331Z,339
2018-06-08T07:08:44.066Z,342
2018-06-08T07:09:44.278Z,324
2018-06-08T07:11:08.040Z,269
2018-06-08T07:12:06.962Z,295
2018-06-08T07:13:05.722Z,247
2018-06-08T07:14:06.589Z,245
2018-06-08T07:15:07.041Z,286
2018-06-08T07:16:05.730Z,326
2018-06-08T07:17:06.655Z,278
2018-06-08T07:18:06.867Z,328
2018-06-08T07:19:06.043Z,302
2018-06-08T07:20:17.309Z,247
2018-06-08T07:21:27.837Z,247
2018-06-08T07:22:28.822Z,251
2018-06-08T07:23:50.481Z,258
2018-06-08T07:24:50.191Z,319
2018-06-08T07:25:50.124Z,317
2018-06-08T07:26:51.105Z,344
2018-06-08T07:27:50.973Z,366
2018-06-08T07:28:50.763Z,376
2018-06-08T07:31:16.970Z,410
2018-06-08T07:32:16.686Z,288
2018-06-08T07:33:17.586Z,370
2018-06-08T07:34:17.583Z,414
2018-06-08T07:35:17.488Z,416
2018-06-08T07:36:17.092Z,427
2018-06-08T07:37:16.793Z,430
2018-06-08T07:38:17.487Z,427
2018-06-08T07:39:40.820Z,429
2018-06-08T07:40:41.121Z,421
2018-06-08T07:42:02.296Z,447
2018-06-08T07:43:03.357Z,441
2018-06-08T07:44:02.186Z,438
2018-06-08T07:45:45.197Z,464
2018-06-08T07:46:47.744Z,467
2018-06-08T07:47:45.417Z,456
2018-06-08T07:48:45.983Z,467
2018-06-08T07:49:46.008Z,469
2018-06-08T07:50:45.884Z,479
2018-06-08T07:51:45.473Z,450
2018-06-08T07:52:45.258Z,461
2018-06-08T07:53:46.283Z,472
2018-06-08T07:55:08.696Z,439
2018-06-08T07:56:08.646Z,515
2018-06-08T07:57:08.516Z,525
2018-06-08T07:58:09.323Z,533
2018-06-08T07:59:07.963Z,516
2018-06-08T08:00:52.307Z,469
2018-06-08T08:01:53.073Z,442
2018-06-08T08:03:16.047Z,427
2018-06-08T08:04:36.797Z,419
2018-06-08T08:05:36.906Z,438
2018-06-08T08:06:39.135Z,433
2018-06-08T08:07:37.157Z,455
2018-06-08T08:08:37.235Z,473
2018-06-08T08:09:37.162Z,494
2018-06-08T08:10:36.779Z,490
2018-06-08T08:11:36.626Z,485
2018-06-08T08:12:37.497Z,481
2018-06-08T08:13:37.159Z,479
2018-06-08T08:14:36.862Z,476
2018-06-08T08:15:36.709Z,490
2018-06-08T08:16:36.652Z,499
2018-06-08T08:17:37.388Z,488
2018-06-08T08:18:37.678Z,486
2018-06-08T08:19:37.819Z,488
2018-06-08T08:20:36.594Z,426
2018-06-08T08:21:37.555Z,456
2018-06-08T08:22:37.486Z,479
2018-06-08T08:23:37.385Z,459
2018-06-08T08:24:37.426Z,464
2018-06-08T08:25:37.475Z,495
2018-06-08T08:26:59.063Z,521
2018-06-08T08:27:58.997Z,437
2018-06-08T08:29:21.542Z,439
2018-06-08T08:30:22.509Z,445
2018-06-08T08:31:22.437Z,501
2018-06-08T08:32:23.433Z,490
2018-06-08T08:33:22.547Z,456
2018-06-08T08:34:29.277Z,455
2018-06-08T08:35:22.171Z,465
2018-06-08T08:36:22.091Z,475
2018-06-08T08:37:22.207Z,470
2018-06-08T08:38:23.286Z,503
2018-06-08T08:39:24.811Z,517
2018-06-08T08:40:23.835Z,559
2018-06-08T08:41:22.604Z,589
2018-06-08T08:42:23.588Z,581
2018-06-08T08:43:22.519Z,567
2018-06-08T08:44:22.350Z,567
2018-06-08T08:45:22.322Z,558
2018-06-08T08:46:22.845Z,529
2018-06-08T08:47:44.228Z,512
2018-06-08T08:48:44.720Z,508
2018-06-08T08:49:45.215Z,520
2018-06-08T08:50:44.835Z,462
2018-06-08T08:51:45.081Z,478
2018-06-08T08:52:44.651Z,529
2018-06-08T08:53:44.559Z,531
2018-06-08T08:54:44.064Z,504
2018-06-08T08:55:44.781Z,513
2018-06-08T08:56:44.624Z,521
2018-06-08T08:57:44.447Z,518
2018-06-08T08:58:45.084Z,512
2018-06-08T08:59:44.781Z,501
2018-06-08T09:00:44.656Z,474
2018-06-08T09:01:44.626Z,423
2018-06-08T09:02:44.255Z,376
2018-06-08T09:03:45.227Z,340
2018-06-08T09:04:44.897Z,327
2018-06-08T09:05:44.713Z,325
2018-06-08T09:06:44.652Z,349
2018-06-08T09:07:44.506Z,387
2018-06-08T09:08:45.118Z,396
2018-06-08T09:09:45.233Z,401
2018-06-08T09:10:44.898Z,487
2018-06-08T09:11:44.583Z,469
2018-06-08T09:12:44.474Z,511
2018-06-08T09:13:44.357Z,554
2018-06-08T09:14:45.042Z,598
2018-06-08T09:15:44.569Z,648
2018-06-08T09:16:44.547Z,672
2018-06-08T09:17:44.151Z,659
2018-06-08T09:18:44.947Z,673
2018-06-08T09:19:44.748Z,677
2018-06-08T09:20:44.790Z,661
2018-06-08T09:22:28.324Z,671
2018-06-08T09:23:30.581Z,664
2018-06-08T09:24:28.583Z,645
2018-06-08T09:25:28.196Z,628
2018-06-08T09:26:30.251Z,555
2018-06-08T09:27:29.266Z,444
2018-06-08T09:28:28.935Z,408
2018-06-08T09:29:28.754Z,410
2018-06-08T09:30:28.482Z,387
2018-06-08T09:31:49.794Z,334
2018-06-08T09:32:50.262Z,323
2018-06-08T09:33:49.988Z,338
2018-06-08T09:34:49.768Z,375
2018-06-08T09:36:11.932Z,366
2018-06-08T09:37:12.841Z,404
2018-06-08T09:38:13.493Z,421
2018-06-08T09:39:12.277Z,470
2018-06-08T09:40:34.105Z,462
2018-06-08T09:41:34.730Z,483
2018-06-08T09:42:34.446Z,493
2018-06-08T09:43:35.118Z,450
2018-06-08T09:44:34.821Z,419
2018-06-08T09:46:39.134Z,383
2018-06-08T09:47:41.087Z,356
2018-06-08T09:48:39.951Z,336
2018-06-08T09:50:01.044Z,344
2018-06-08T09:51:01.627Z,386
2018-06-08T09:52:02.530Z,440
2018-06-08T09:53:22.608Z,480
2018-06-08T09:54:46.280Z,507
2018-06-08T09:55:45.988Z,518
2018-06-08T09:56:46.920Z,529
2018-06-08T09:57:46.639Z,540
2018-06-08T09:58:47.347Z,551
2018-06-08T09:59:46.196Z,580
2018-06-08T10:00:46.940Z,611
2018-06-08T10:01:46.543Z,640
2018-06-08T10:02:46.160Z,656
2018-06-08T10:04:08.190Z,653
2018-06-08T10:05:09.125Z,673
2018-06-08T10:06:08.655Z,667
2018-06-08T10:07:08.675Z,682
2018-06-08T10:08:08.699Z,651
2018-06-08T10:09:08.450Z,649
2018-06-08T10:10:09.170Z,655
2018-06-08T10:11:09.120Z,582
2018-06-08T10:12:08.871Z,596
2018-06-08T10:13:08.609Z,452
2018-06-08T10:14:08.309Z,422
2018-06-08T10:15:09.209Z,438
2018-06-08T10:16:32.078Z,364
2018-06-08T10:17:31.887Z,347
2018-06-08T10:18:31.798Z,413
2018-06-08T10:19:31.977Z,331
2018-06-08T10:20:31.794Z,332
2018-06-08T10:21:31.485Z,301
2018-06-08T10:22:32.130Z,296
2018-06-08T10:23:32.128Z,318
2018-06-08T10:24:31.880Z,351
2018-06-08T10:25:31.564Z,429
2018-06-08T10:26:33.078Z,431
2018-06-08T10:27:32.749Z,425
2018-06-08T10:28:53.770Z,395
2018-06-08T10:29:53.686Z,375
2018-06-08T10:30:54.681Z,358
2018-06-08T10:31:53.536Z,334
2018-06-08T10:32:54.881Z,325
2018-06-08T10:33:54.143Z,343
2018-06-08T10:35:38.980Z,383
2018-06-08T10:36:39.418Z,376
2018-06-08T10:37:39.402Z,352
2018-06-08T10:38:39.378Z,333
2018-06-08T10:39:39.134Z,327
2018-06-08T10:40:39.066Z,318
2018-06-08T10:42:01.061Z,308
2018-06-08T10:43:01.914Z,303
2018-06-08T10:44:01.801Z,287
2018-06-08T10:45:01.792Z,291
2018-06-08T10:46:23.074Z,308
2018-06-08T10:47:24.300Z,310
2018-06-08T10:48:24.512Z,327
2018-06-08T10:49:24.190Z,331
2018-06-08T10:50:24.426Z,335
2018-06-08T10:51:51.574Z,354
2018-06-08T10:52:47.623Z,341
2018-06-08T10:53:47.258Z,358
2018-06-08T10:54:47.275Z,375
2018-06-08T10:55:47.087Z,361
2018-06-08T10:56:46.835Z,357
2018-06-08T10:58:08.026Z,407
2018-06-08T10:59:08.520Z,374
2018-06-08T11:00:08.303Z,339
2018-06-08T11:01:09.957Z,341
2018-06-08T11:02:08.707Z,346
2018-06-08T11:03:08.567Z,327
2018-06-08T11:04:08.323Z,316
2018-06-08T11:05:08.930Z,336
2018-06-08T11:06:08.817Z,305
2018-06-08T11:07:52.265Z,289
2018-06-08T11:08:53.263Z,298
2018-06-08T11:10:35.379Z,296
2018-06-08T11:11:36.120Z,300
2018-06-08T11:12:36.005Z,326
2018-06-08T11:13:35.730Z,354
2018-06-08T11:14:35.514Z,327
2018-06-08T11:15:36.618Z,322
2018-06-08T11:16:35.381Z,344
2018-06-08T11:17:35.046Z,360
2018-06-08T11:18:35.654Z,374
2018-06-08T11:19:35.438Z,372
2018-06-08T11:20:36.053Z,336
2018-06-08T11:21:35.934Z,304
2018-06-08T11:22:36.016Z,257
2018-06-08T11:23:35.882Z,196
2018-06-08T11:24:35.773Z,174
2018-06-08T11:25:35.337Z,156
2018-06-08T11:26:36.233Z,143
2018-06-08T11:27:36.324Z,135
2018-06-08T11:28:36.254Z,131
2018-06-08T11:29:36.226Z,130
2018-06-08T11:30:57.942Z,137
2018-06-08T11:32:21.569Z,152
2018-06-08T11:33:21.208Z,165
2018-06-08T11:34:21.311Z,184
2018-06-08T11:35:21.037Z,219
2018-06-08T11:37:04.776Z,313
2018-06-08T11:38:04.681Z,270
2018-06-08T11:39:27.248Z,309
2018-06-08T11:40:27.937Z,284
2018-06-08T11:41:27.906Z,291
2018-06-08T11:42:28.462Z,343
2018-06-08T11:43:27.370Z,309
2018-06-08T11:44:27.421Z,324
2018-06-08T11:45:27.548Z,357
2018-06-08T11:46:27.542Z,466
2018-06-08T11:47:27.139Z,442
2018-06-08T11:48:28.504Z,510
2018-06-08T11:49:28.034Z,645
2018-06-08T11:50:27.989Z,689
2018-06-08T11:51:27.872Z,722
2018-06-08T11:52:27.787Z,750
2018-06-08T11:53:27.586Z,795
2018-06-08T11:54:27.254Z,794
2018-06-08T11:55:28.384Z,798
2018-06-08T11:56:27.223Z,812
2018-06-08T11:57:28.230Z,814
2018-06-08T11:58:28.322Z,784
2018-06-08T11:59:28.336Z,722
2018-06-08T12:00:28.715Z,651
2018-06-08T12:01:27.652Z,596
2018-06-08T12:02:28.879Z,512
2018-06-08T12:03:27.917Z,622
2018-06-08T12:04:28.109Z,594
2018-06-08T12:05:28.955Z,586
2018-06-08T12:06:28.491Z,596
2018-06-08T12:07:53.307Z,644
2018-06-08T12:08:53.783Z,597
2018-06-08T12:10:06.795Z,555
2018-06-08T12:10:59.164Z,499
2018-06-08T12:12:05.072Z,374
2018-06-08T12:12:54.811Z,337
2018-06-08T12:13:57.316Z,338
2018-06-08T12:14:54.357Z,334
2018-06-08T12:15:53.644Z,312
2018-06-08T12:16:54.173Z,302
2018-06-08T12:17:55.810Z,349
2018-06-08T12:18:55.080Z,278
2018-06-08T12:19:55.059Z,257
2018-06-08T12:20:55.510Z,239
2018-06-08T12:21:53.953Z,222
2018-06-08T12:22:54.868Z,214
2018-06-08T12:24:00.403Z,201
2018-06-08T12:25:24.407Z,179
2018-06-08T12:26:22.151Z,165
2018-06-08T12:27:20.316Z,156
2018-06-08T12:28:30.918Z,146
2018-06-08T12:29:24.625Z,136
2018-06-08T12:30:23.255Z,127
2018-06-08T12:31:20.283Z,121
2018-06-08T12:32:19.202Z,119
2018-06-08T12:33:20.249Z,119
2018-06-08T12:34:31.820Z,120
2018-06-08T12:35:23.759Z,118
2018-06-08T12:36:25.548Z,113
2018-06-08T12:37:20.833Z,108
2018-06-08T12:38:20.426Z,100
2018-06-08T12:39:19.384Z,91
2018-06-08T12:40:20.278Z,81
2018-06-08T12:41:19.261Z,73
2018-06-08T12:42:19.795Z,66
2018-06-08T12:43:20.267Z,58
2018-06-08T12:44:19.522Z,53
2018-06-08T12:45:45.923Z,45
2018-06-08T12:46:43.032Z,42
2018-06-08T12:47:41.902Z,40
2018-06-08T12:48:42.790Z,39
2018-06-08T12:49:42.636Z,38
2018-06-08T12:51:08.714Z,35
2018-06-08T12:52:08.082Z,33
2018-06-08T12:53:31.868Z,29
2018-06-08T12:54:37.389Z,26
2018-06-08T12:55:34.931Z,23
2018-06-08T12:56:34.831Z,21
2018-06-08T12:57:58.861Z,19
2018-06-08T12:59:00.305Z,17
2018-06-08T12:59:57.336Z,17
2018-06-08T13:00:56.847Z,16
2018-06-08T13:01:58.444Z,16
2018-06-08T13:02:57.664Z,17
2018-06-08T13:03:57.521Z,17
2018-06-08T13:05:01.237Z,17
2018-06-08T13:05:57.418Z,18
2018-06-08T13:06:57.453Z,18
2018-06-08T13:07:56.359Z,18
2018-06-08T13:09:02.515Z,18
2018-06-08T13:09:58.569Z,18
2018-06-08T13:10:58.096Z,18
2018-06-08T13:12:03.496Z,19
2018-06-08T13:13:01.157Z,19
2018-06-08T13:14:24.953Z,19
2018-06-08T13:15:24.693Z,19
2018-06-08T13:16:24.888Z,18
2018-06-08T13:17:23.749Z,18
2018-06-08T13:18:24.457Z,18
2018-06-08T13:19:34.826Z,19
2018-06-08T13:20:33.989Z,19
2018-06-08T13:21:28.626Z,20
2018-06-08T13:22:26.288Z,20
2018-06-08T13:23:27.686Z,20
2018-06-08T13:24:29.693Z,20
2018-06-08T13:25:31.845Z,20
2018-06-08T13:26:33.535Z,20
2018-06-08T13:27:32.439Z,20
2018-06-08T13:28:26.197Z,20
2018-06-08T13:29:47.122Z,20
2018-06-08T13:30:56.637Z,20
2018-06-08T13:31:47.040Z,20
2018-06-08T13:32:46.302Z,19
2018-06-08T13:33:46.072Z,19
2018-06-08T13:34:46.691Z,19
2018-06-08T13:36:08.845Z,19
2018-06-08T13:37:30.338Z,19
2018-06-08T13:38:30.330Z,19
2018-06-08T13:39:52.048Z,19
2018-06-08T13:40:52.688Z,20
2018-06-08T13:42:13.774Z,20
2018-06-08T13:43:14.638Z,20
2018-06-08T13:44:14.447Z,20
2018-06-08T13:45:14.771Z,21
2018-06-08T13:46:14.628Z,21
2018-06-08T13:47:35.730Z,22
2018-06-08T13:48:36.639Z,22
2018-06-08T13:49:36.631Z,22
2018-06-08T13:50:36.314Z,23
2018-06-08T13:51:36.354Z,23
2018-06-08T13:52:36.288Z,23
2018-06-08T13:53:36.925Z,23
2018-06-08T13:54:36.586Z,23
2018-06-08T13:55:36.543Z,23
2018-06-08T13:56:36.446Z,22
2018-06-08T13:57:36.248Z,22
2018-06-08T13:58:36.205Z,22
2018-06-08T13:59:35.918Z,22
2018-06-08T14:00:36.674Z,22
2018-06-08T14:01:36.668Z,22
2018-06-08T14:02:36.401Z,22
2018-06-08T14:03:37.163Z,22
2018-06-08T14:04:35.972Z,23
2018-06-08T14:05:37.561Z,23
2018-06-08T14:06:36.243Z,23
2018-06-08T14:07:36.284Z,24
2018-06-08T14:08:36.594Z,25
2018-06-08T14:09:36.787Z,25
2018-06-08T14:10:36.445Z,26
2018-06-08T14:11:36.642Z,27
2018-06-08T14:12:58.418Z,28
2018-06-08T14:13:59.372Z,28
2018-06-08T14:15:00.667Z,29
2018-06-08T14:15:58.529Z,30
2018-06-08T14:17:45.682Z,32
2018-06-08T14:18:44.906Z,34
2018-06-08T14:20:07.556Z,35
2018-06-08T14:21:07.528Z,37
2018-06-08T14:22:08.613Z,38
2018-06-08T14:23:32.473Z,40
2018-06-08T14:24:32.477Z,41
2018-06-08T14:25:32.248Z,43
2018-06-08T14:26:32.901Z,44
2018-06-08T14:27:32.816Z,48
2018-06-08T14:28:33.052Z,51
2018-06-08T14:29:56.335Z,55
2018-06-08T14:30:56.395Z,57
2018-06-08T14:31:58.016Z,59
2018-06-08T14:32:55.265Z,60
2018-06-08T14:33:58.110Z,59
2018-06-08T14:35:23.394Z,60
2018-06-08T14:36:23.066Z,60
2018-06-08T14:37:23.626Z,60
2018-06-08T14:38:24.366Z,60
2018-06-08T14:39:23.282Z,64
2018-06-08T14:40:23.121Z,64
2018-06-08T14:41:24.554Z,66
2018-06-08T14:42:23.380Z,69
2018-06-08T14:43:23.062Z,71
2018-06-08T14:44:23.837Z,74
2018-06-08T14:45:46.203Z,77
2018-06-08T14:46:46.481Z,81
2018-06-08T14:47:46.659Z,86
2018-06-08T14:48:47.732Z,90
2018-06-08T14:49:47.409Z,93
2018-06-08T14:50:46.584Z,95
2018-06-08T14:51:46.791Z,97
2018-06-08T14:52:46.938Z,100
2018-06-08T14:54:33.048Z,107
2018-06-08T14:55:31.794Z,109
2018-06-08T14:56:31.856Z,111
2018-06-08T14:57:32.093Z,116
2018-06-08T14:58:31.887Z,116
2018-06-08T14:59:33.106Z,119
2018-06-08T15:00:31.980Z,123